Time;durP1;ratioP1;P1;durP2;ratioP2;P2;SDS_P1;SDS_P2;PMS_P1;PMS_P2;Temp;Humidity;BMP_temperature;BMP_pressure;BME280_temperature;BME280_humidity;BME280_pressure;Samples;Min_cycle;Max_cycle;Signal;HPM_P1;HPM_P2
2023/03/18 00:01:38;;;;;;;12.47;7.47;;;;;;;10.81;74.07;98224.03;4991275;28;104089;-62
2023/03/18 00:04:06;;;;;;;8.03;6.50;;;;;;;10.70;75.24;98219.63;4992855;28;103105;-62
2023/03/18 00:06:37;;;;;;;9.30;6.30;;;;;;;10.76;74.42;98227.06;4990834;28;102759;-62
2023/03/18 00:09:05;;;;;;;6.27;5.63;;;;;;;10.95;73.30;98224.59;4989362;28;102878;-62
2023/03/18 00:11:34;;;;;;;13.87;7.73;;;;;;;10.69;74.25;98217.97;4983816;28;103260;-62
2023/03/18 00:14:03;;;;;;;5.80;5.17;;;;;;;10.85;73.86;98220.19;4988832;28;103219;-61
2023/03/18 00:16:31;;;;;;;9.53;6.63;;;;;;;10.86;73.21;98220.06;4992935;28;102661;-62
2023/03/18 00:19:00;;;;;;;12.10;7.67;;;;;;;10.82;73.07;98223.94;4977691;28;102864;-62
2023/03/18 00:21:29;;;;;;;10.33;7.10;;;;;;;10.79;73.41;98215.41;4995754;28;103315;-61
2023/03/18 00:23:57;;;;;;;9.57;6.13;;;;;;;10.78;73.67;98217.19;4996688;28;103248;-62
2023/03/18 00:26:28;;;;;;;8.13;5.73;;;;;;;10.76;73.60;98224.41;4992977;28;102618;-62
2023/03/18 00:28:57;;;;;;;7.10;5.27;;;;;;;10.81;73.43;98222.25;4977969;28;102860;-62
2023/03/18 00:31:28;;;;;;;7.20;5.20;;;;;;;10.85;73.06;98228.13;4993339;28;103286;-62
2023/03/18 00:33:57;;;;;;;6.87;4.87;;;;;;;10.90;73.03;98226.78;4999611;28;103220;-62
2023/03/18 00:36:27;;;;;;;6.03;4.97;;;;;;;10.82;73.48;98239.78;4991996;28;102748;-62
2023/03/18 00:38:57;;;;;;;7.53;5.37;;;;;;;10.89;73.07;98245.44;4994393;28;104015;-61
2023/03/18 00:41:26;;;;;;;7.43;4.87;;;;;;;10.86;73.46;98245.66;4990176;28;103467;-62
2023/03/18 00:43:55;;;;;;;9.00;5.70;;;;;;;10.88;73.01;98252.50;4975165;28;104509;-62
2023/03/18 00:46:25;;;;;;;7.13;5.87;;;;;;;10.85;73.03;98250.13;4997753;28;102728;-61
2023/03/18 00:48:55;;;;;;;12.97;7.37;;;;;;;10.74;73.97;98252.78;4984124;28;104193;-61
2023/03/18 00:51:25;;;;;;;11.60;6.37;;;;;;;10.72;74.22;98264.44;4995042;28;103263;-62
2023/03/18 00:53:56;;;;;;;13.37;8.00;;;;;;;10.26;76.33;98262.75;4993576;28;103267;-62
2023/03/18 00:56:29;;;;;;;12.37;7.67;;;;;;;10.51;75.23;98266.97;4997131;28;102670;-61
2023/03/18 00:58:58;;;;;;;8.67;6.80;;;;;;;10.54;75.05;98257.94;4974706;28;104226;-61
2023/03/18 01:01:30;;;;;;;7.63;5.87;;;;;;;10.63;74.53;98266.00;4974040;28;104525;-62
2023/03/18 01:03:59;;;;;;;8.27;5.83;;;;;;;10.69;73.67;98254.94;4972427;28;103337;-62
2023/03/18 01:06:31;;;;;;;9.50;6.00;;;;;;;10.76;73.43;98264.06;4994525;28;103193;-61
2023/03/18 01:09:01;;;;;;;11.13;5.77;;;;;;;10.73;73.67;98252.88;4995017;28;102675;-61
2023/03/18 01:11:30;;;;;;;7.30;4.80;;;;;;;10.77;73.02;98256.97;4990690;28;103049;-62
2023/03/18 01:13:59;;;;;;;9.53;6.27;;;;;;;10.82;72.58;98247.72;4988456;28;103335;-62
2023/03/18 01:16:28;;;;;;;8.07;5.37;;;;;;;10.80;72.66;98254.94;4975400;28;102760;-62
2023/03/18 01:18:57;;;;;;;9.23;5.00;;;;;;;10.80;72.76;98257.56;4974115;28;102810;-61
2023/03/18 01:21:25;;;;;;;7.77;4.70;;;;;;;10.77;72.44;98257.81;4989482;28;104219;-61
2023/03/18 01:23:59;;;;;;;5.70;4.80;;;;;;;10.75;72.35;98256.25;4989565;28;103374;-61
2023/03/18 01:26:29;;;;;;;7.93;4.97;;;;;;;10.73;71.93;98259.00;4974364;28;102811;-61
2023/03/18 01:28:59;;;;;;;7.20;4.87;;;;;;;10.56;72.61;98262.16;4970541;28;102830;-61
2023/03/18 01:31:29;;;;;;;6.07;4.03;;;;;;;10.52;71.66;98252.81;4988475;28;103307;-61
2023/03/18 01:34:04;;;;;;;7.03;4.57;;;;;;;10.59;71.20;98258.41;4971435;28;104394;-62
2023/03/18 01:36:43;;;;;;;6.27;4.67;;;;;;;10.59;70.74;98255.78;4974465;28;102688;-62
2023/03/18 01:39:11;;;;;;;6.80;4.60;;;;;;;10.56;70.01;98242.81;4991189;28;102762;-62
2023/03/18 01:41:41;;;;;;;5.70;3.50;;;;;;;10.54;70.12;98248.22;4993483;28;103553;-62
2023/03/18 01:44:13;;;;;;;5.10;3.47;;;;;;;10.64;69.95;98241.25;4973056;28;103234;-62
2023/03/18 01:46:45;;;;;;;4.60;3.20;;;;;;;10.72;69.24;98238.81;4977767;28;102708;-61
2023/03/18 01:49:17;;;;;;;4.83;3.17;;;;;;;10.74;68.64;98242.22;4977635;28;103007;-62
2023/03/18 01:51:52;;;;;;;4.97;3.67;;;;;;;10.67;68.29;98241.00;4976365;28;103281;-62
2023/03/18 01:54:22;;;;;;;4.53;2.70;;;;;;;10.66;66.64;98244.63;4994808;28;102662;-62
2023/03/18 01:56:52;;;;;;;3.60;2.30;;;;;;;10.81;67.12;98237.25;4992164;28;102758;-62
2023/03/18 01:59:25;;;;;;;2.87;2.37;;;;;;;10.32;65.75;98235.03;4976171;28;103987;-62
2023/03/18 02:01:58;;;;;;;6.10;3.33;;;;;;;10.42;67.02;98246.53;4972171;28;104468;-62
2023/03/18 02:04:32;;;;;;;8.03;3.60;;;;;;;10.28;68.66;98252.91;4974854;28;103192;-62
2023/03/18 02:07:01;;;;;;;4.20;3.17;;;;;;;10.35;67.23;98245.38;4985046;28;102858;-62
2023/03/18 02:09:29;;;;;;;5.23;4.00;;;;;;;10.37;67.70;98243.44;4974407;28;102890;-62
2023/03/18 02:12:02;;;;;;;4.20;2.87;;;;;;;10.30;67.53;98247.53;4974606;28;104168;-62
2023/03/18 02:14:31;;;;;;;4.70;3.10;;;;;;;10.38;67.23;98250.41;4992144;28;103217;-63
2023/03/18 02:17:02;;;;;;;4.20;2.57;;;;;;;10.26;68.03;98243.44;4974297;28;102677;-61
2023/03/18 02:19:50;;;;;;;4.07;2.47;;;;;;;10.28;67.32;98246.78;4970699;28;102840;-62
2023/03/18 02:22:26;;;;;;;3.97;2.33;;;;;;;10.53;66.76;98243.91;4990002;28;103489;-62
2023/03/18 02:25:09;;;;;;;4.60;2.87;;;;;;;10.62;67.44;98240.53;4997766;28;103219;-62
2023/03/18 02:27:41;;;;;;;2.80;2.03;;;;;;;10.57;67.67;98244.50;4973999;28;102741;-62
2023/03/18 02:30:14;;;;;;;3.10;2.57;;;;;;;10.57;68.83;98244.50;4976624;28;102784;-62
2023/03/18 02:32:47;;;;;;;3.13;2.23;;;;;;;10.48;69.29;98254.00;4975437;28;103529;-62
2023/03/18 02:35:15;;;;;;;3.77;2.73;;;;;;;10.37;69.10;98251.34;4992708;28;102979;-62
2023/03/18 02:37:43;;;;;;;3.90;2.47;;;;;;;10.00;67.37;98255.13;4971456;28;103094;-62
2023/03/18 02:40:18;;;;;;;3.33;2.27;;;;;;;10.09;65.76;98251.78;4973287;28;103010;-62
2023/03/18 02:42:48;;;;;;;5.00;2.70;;;;;;;10.13;65.30;98255.91;4977615;28;104186;-62
2023/03/18 02:45:30;;;;;;;5.47;2.70;;;;;;;10.37;65.38;98246.06;4975070;28;103403;-62
2023/03/18 02:48:17;;;;;;;3.03;2.20;;;;;;;10.41;67.27;98255.44;4988132;28;102675;-62
2023/03/18 02:50:48;;;;;;;6.33;4.10;;;;;;;10.38;69.99;98266.25;4972909;28;103063;-62
2023/03/18 02:53:19;;;;;;;9.47;4.77;;;;;;;10.22;71.26;98265.75;4973274;28;103351;-62
2023/03/18 02:55:47;;;;;;;5.43;4.07;;;;;;;10.20;71.58;98267.66;4977783;28;104026;-62
2023/03/18 02:58:17;;;;;;;6.37;3.67;;;;;;;10.28;71.06;98262.63;4975231;28;102921;-61
2023/03/18 03:00:46;;;;;;;7.30;4.97;;;;;;;10.13;71.42;98269.13;4988123;28;104017;-62
2023/03/18 03:03:15;;;;;;;7.17;4.80;;;;;;;10.08;71.79;98264.13;4971192;28;106688;-62
2023/03/18 03:05:43;;;;;;;7.60;4.37;;;;;;;10.06;71.26;98265.22;4992748;28;103188;-62
2023/03/18 03:08:11;;;;;;;5.07;3.70;;;;;;;9.97;71.25;98261.47;4972394;28;102784;-62
2023/03/18 03:10:42;;;;;;;5.80;3.00;;;;;;;9.88;70.65;98272.72;5001142;28;102655;-62
2023/03/18 03:13:10;;;;;;;4.40;2.97;;;;;;;9.90;70.86;98274.31;4972195;28;103276;-62
2023/03/18 03:15:41;;;;;;;5.83;3.07;;;;;;;9.92;70.12;98284.75;4975643;28;105414;-62
2023/03/18 03:18:10;;;;;;;4.90;2.50;;;;;;;10.07;69.72;98282.75;4976285;28;102677;-62
2023/03/18 03:20:38;;;;;;;5.13;3.40;;;;;;;10.03;70.70;98276.00;4984955;28;102693;-62
2023/03/18 03:23:08;;;;;;;7.70;4.50;;;;;;;9.86;72.21;98286.06;4973738;28;104264;-62
2023/03/18 03:25:37;;;;;;;6.07;4.43;;;;;;;9.67;73.85;98291.03;4985501;28;103338;-62
2023/03/18 03:28:06;;;;;;;4.97;3.90;;;;;;;9.80;72.50;98286.50;4973830;28;102619;-62
2023/03/18 03:30:35;;;;;;;5.53;4.20;;;;;;;9.56;73.23;98292.78;4996924;28;102622;-62
2023/03/18 03:33:05;;;;;;;5.03;3.73;;;;;;;9.64;71.75;98290.41;4993900;28;104085;-62
2023/03/18 03:35:33;;;;;;;4.60;2.80;;;;;;;9.73;71.73;98290.59;4973175;28;103149;-62
2023/03/18 03:38:01;;;;;;;5.83;3.43;;;;;;;9.59;71.39;98298.69;4994231;28;102828;-62
2023/03/18 03:40:30;;;;;;;8.13;3.30;;;;;;;9.55;71.57;98297.22;4995376;28;102602;-61
2023/03/18 03:42:58;;;;;;;3.03;2.50;;;;;;;9.70;71.21;98305.78;4992978;28;103783;-62
2023/03/18 03:45:27;;;;;;;4.80;3.10;;;;;;;9.41;71.70;98305.31;4977713;28;103239;-62
2023/03/18 03:47:56;;;;;;;3.43;2.50;;;;;;;9.55;71.10;98309.56;4977257;28;102793;-62
2023/03/18 03:50:26;;;;;;;6.53;3.13;;;;;;;9.20;71.86;98305.09;4992978;28;103322;-62
2023/03/18 03:52:55;;;;;;;3.20;2.53;;;;;;;9.28;71.78;98305.38;4989615;28;103293;-62
2023/03/18 03:55:24;;;;;;;3.30;2.63;;;;;;;9.44;71.18;98294.53;4985891;28;105033;-62
2023/03/18 03:57:55;;;;;;;3.40;2.23;;;;;;;9.53;71.02;98299.13;4972351;28;102777;-62
2023/03/18 04:00:24;;;;;;;4.07;2.70;;;;;;;9.61;70.71;98299.41;4979156;28;102783;-57
2023/03/18 04:02:53;;;;;;;3.40;2.50;;;;;;;9.62;70.46;98298.47;4974388;28;103203;-60
2023/03/18 04:05:24;;;;;;;4.93;3.20;;;;;;;9.47;71.20;98299.59;4980020;28;103679;-61
2023/03/18 04:07:54;;;;;;;3.93;2.80;;;;;;;9.47;71.24;98298.75;4992721;28;102703;-61
2023/03/18 04:10:35;;;;;;;4.20;3.23;;;;;;;9.54;70.76;98305.25;4976336;28;102791;-61
2023/03/18 04:13:05;;;;;;;4.90;3.17;;;;;;;9.48;71.28;98306.56;4996278;28;104416;-61
2023/03/18 04:15:33;;;;;;;5.50;3.70;;;;;;;9.24;72.07;98309.19;4978270;28;103396;-61
2023/03/18 04:18:09;;;;;;;4.13;3.10;;;;;;;9.14;72.65;98309.97;4974306;28;103040;-61
2023/03/18 04:20:38;;;;;;;4.40;3.50;;;;;;;9.21;72.43;98311.19;4988672;28;102782;-61
2023/03/18 04:23:16;;;;;;;4.67;3.50;;;;;;;9.27;72.28;98302.84;4973600;28;104167;-61
2023/03/18 04:25:44;;;;;;;3.10;2.80;;;;;;;9.12;72.91;98317.16;4992736;28;103202;-62
2023/03/18 04:28:13;;;;;;;3.60;2.30;;;;;;;9.18;72.77;98314.06;4981357;28;102629;-61
2023/03/18 04:30:41;;;;;;;5.60;4.20;;;;;;;9.05;72.23;98316.75;4975729;28;102899;-61
2023/03/18 04:33:13;;;;;;;4.73;3.33;;;;;;;8.90;73.19;98314.38;4970755;28;103233;-62
2023/03/18 04:35:42;;;;;;;5.27;3.70;;;;;;;8.28;75.99;98310.91;4973591;28;105437;-62
2023/03/18 04:38:12;;;;;;;8.50;4.30;;;;;;;8.24;76.92;98318.13;4977680;28;102869;-62
2023/03/18 04:40:42;;;;;;;5.50;3.30;;;;;;;8.57;75.48;98318.44;4985377;28;103083;-62
2023/03/18 04:43:10;;;;;;;4.60;3.60;;;;;;;8.10;76.66;98318.22;4989223;28;103728;-62
2023/03/18 04:45:39;;;;;;;5.00;3.90;;;;;;;7.84;77.79;98321.75;4971827;28;103332;-62
2023/03/18 04:48:07;;;;;;;4.57;3.50;;;;;;;7.99;76.88;98320.75;4988665;28;102858;-62
2023/03/18 04:50:39;;;;;;;4.77;3.30;;;;;;;8.33;76.30;98330.69;4972031;28;102800;-62
2023/03/18 04:53:11;;;;;;;4.97;4.20;;;;;;;7.99;77.03;98316.31;4976603;28;105197;-62
2023/03/18 04:55:39;;;;;;;6.97;4.30;;;;;;;8.08;76.77;98313.03;4976283;28;103114;-61
2023/03/18 04:58:11;;;;;;;6.30;3.43;;;;;;;8.38;75.69;98318.03;4974929;28;102733;-62
2023/03/18 05:00:44;;;;;;;6.10;4.20;;;;;;;8.46;74.55;98326.25;4974683;28;103898;-62
2023/03/18 05:03:21;;;;;;;4.73;3.57;;;;;;;8.62;74.38;98329.47;4978118;28;103823;-62
2023/03/18 05:05:50;;;;;;;4.53;3.40;;;;;;;8.56;74.23;98319.38;4977849;28;103202;-62
2023/03/18 05:08:22;;;;;;;5.20;3.67;;;;;;;8.35;74.52;98320.88;4978201;28;103060;-62
2023/03/18 05:10:52;;;;;;;5.90;4.23;;;;;;;8.29;75.70;98318.66;4978115;28;102865;-62
2023/03/18 05:13:21;;;;;;;6.20;4.77;;;;;;;8.01;77.78;98310.94;4986158;28;103887;-62
2023/03/18 05:15:49;;;;;;;5.80;4.90;;;;;;;8.19;76.97;98317.59;4991482;28;103960;-62
2023/03/18 05:18:18;;;;;;;7.17;4.10;;;;;;;8.36;75.81;98319.09;4975993;28;103427;-60
2023/03/18 05:20:49;;;;;;;6.57;4.50;;;;;;;8.32;76.27;98334.25;4976815;28;103831;-61
2023/03/18 05:23:18;;;;;;;6.03;5.03;;;;;;;8.43;75.72;98323.81;4975904;28;103157;-61
2023/03/18 05:25:53;;;;;;;6.67;5.30;;;;;;;8.32;76.04;98334.25;4975195;28;105170;-61
2023/03/18 05:28:25;;;;;;;7.50;4.70;;;;;;;8.41;75.87;98330.16;4978251;28;102709;-61
2023/03/18 05:31:23;;;;;;;5.47;3.90;;;;;;;8.46;75.46;98330.66;4977332;28;104431;-61
2023/03/18 05:33:52;;;;;;;4.73;3.60;;;;;;;8.43;75.19;98326.47;4978869;28;105081;-61
2023/03/18 05:36:25;;;;;;;5.33;3.47;;;;;;;8.36;75.52;98334.91;4973379;28;103191;-61
2023/03/18 05:38:59;;;;;;;5.30;4.00;;;;;;;8.31;75.15;98337.81;4983647;28;102769;-62
2023/03/18 05:41:28;;;;;;;5.63;3.50;;;;;;;8.04;77.14;98334.41;4978367;28;102997;-61
2023/03/18 05:43:58;;;;;;;6.33;4.03;;;;;;;8.00;76.72;98332.97;4976561;28;103310;-62
2023/03/18 05:46:27;;;;;;;4.10;3.20;;;;;;;8.07;76.77;98339.47;4975224;28;105160;-61
2023/03/18 05:49:12;;;;;;;4.93;3.70;;;;;;;8.00;77.40;98335.59;4976109;28;103239;-61
2023/03/18 05:51:50;;;;;;;3.47;3.17;;;;;;;7.99;77.93;98331.25;4979410;28;102810;-61
2023/03/18 05:54:32;;;;;;;5.23;4.33;;;;;;;7.97;77.57;98333.16;4978094;28;103245;-61
2023/03/18 05:57:01;;;;;;;5.33;3.70;;;;;;;7.71;79.49;98331.41;4972934;28;103775;-61
2023/03/18 05:59:30;;;;;;;4.97;3.10;;;;;;;7.97;78.38;98343.69;4975934;28;103243;-62
2023/03/18 06:02:00;;;;;;;5.30;4.17;;;;;;;7.80;78.42;98338.72;4973370;28;104168;-61
2023/03/18 06:04:28;;;;;;;7.23;4.90;;;;;;;8.04;77.87;98331.78;4969793;28;103343;-62
2023/03/18 06:06:57;;;;;;;4.40;3.37;;;;;;;7.97;77.97;98333.16;4974833;28;103178;-61
2023/03/18 06:09:26;;;;;;;3.10;2.80;;;;;;;8.00;77.85;98335.59;4984741;28;102772;-62
2023/03/18 06:11:54;;;;;;;4.30;3.07;;;;;;;8.12;76.68;98342.63;4993782;28;104186;-62
2023/03/18 06:14:28;;;;;;;6.93;4.10;;;;;;;8.14;76.47;98336.31;4990658;28;103475;-61
2023/03/18 06:17:00;;;;;;;3.67;3.27;;;;;;;8.18;76.31;98339.59;4973917;28;103617;-61
2023/03/18 06:19:30;;;;;;;4.93;3.67;;;;;;;8.23;76.05;98339.25;4977166;28;102822;-61
2023/03/18 06:21:58;;;;;;;5.00;4.50;;;;;;;8.21;75.70;98343.78;4992501;28;102813;-61
2023/03/18 06:24:27;;;;;;;5.30;3.47;;;;;;;8.18;76.28;98352.75;4978456;28;104347;-61
2023/03/18 06:26:56;;;;;;;3.67;3.20;;;;;;;8.21;76.58;98352.53;4972522;28;103187;-61
2023/03/18 06:29:25;;;;;;;4.83;4.07;;;;;;;8.14;76.06;98348.63;4994506;28;102887;-61
2023/03/18 06:31:57;;;;;;;4.13;3.43;;;;;;;8.24;76.57;98352.34;4975119;28;103336;-61
2023/03/18 06:34:28;;;;;;;3.43;3.13;;;;;;;8.35;75.74;98359.53;4969675;28;103263;-61
2023/03/18 06:36:58;;;;;;;3.67;3.17;;;;;;;8.39;75.59;98359.22;4976629;28;103215;-61
2023/03/18 06:39:27;;;;;;;4.23;3.23;;;;;;;8.42;75.49;98356.34;4974990;28;102829;-60
2023/03/18 06:41:56;;;;;;;6.20;3.63;;;;;;;8.48;75.19;98355.94;4991915;28;102812;-57
2023/03/18 06:44:30;;;;;;;4.50;3.30;;;;;;;8.51;75.22;98353.09;4999995;28;103306;-57
2023/03/18 06:47:08;;;;;;;6.63;3.60;;;;;;;8.54;75.45;98363.41;4978236;28;103232;-57
2023/03/18 06:49:43;;;;;;;5.00;3.87;;;;;;;8.61;75.63;98355.94;4977558;28;103880;-57
2023/03/18 06:52:18;;;;;;;3.63;3.10;;;;;;;8.67;75.10;98361.59;4974374;28;102811;-57
2023/03/18 06:54:48;;;;;;;6.13;4.00;;;;;;;8.64;74.80;98356.56;4977405;28;103297;-57
2023/03/18 06:57:17;;;;;;;6.80;4.23;;;;;;;8.48;76.30;98357.72;4972484;28;103209;-57
2023/03/18 06:59:47;;;;;;;6.07;4.00;;;;;;;8.43;77.88;98355.41;4971522;28;103004;-57
2023/03/18 07:02:16;;;;;;;9.77;3.80;;;;;;;8.42;77.72;98356.34;4989191;28;102822;-57
2023/03/18 07:04:46;;;;;;;6.67;3.63;;;;;;;8.80;76.47;98358.97;4998690;28;105402;-57
2023/03/18 07:07:15;;;;;;;4.90;4.20;;;;;;;8.96;75.54;98361.34;4989450;28;103702;-57
2023/03/18 07:09:44;;;;;;;4.10;3.23;;;;;;;9.36;74.66;98365.44;4971841;28;103107;-57
2023/03/18 07:12:13;;;;;;;4.93;3.47;;;;;;;9.69;73.87;98360.34;4971970;28;102751;-57
2023/03/18 07:14:44;;;;;;;4.53;3.50;;;;;;;9.97;73.69;98366.19;4974762;28;104297;-57
2023/03/18 07:17:13;;;;;;;4.80;3.57;;;;;;;10.18;73.13;98364.63;4967449;28;103774;-57
2023/03/18 07:19:41;;;;;;;5.90;4.47;;;;;;;9.87;73.38;98363.41;4980087;28;102781;-57
2023/03/18 07:22:16;;;;;;;7.00;4.37;;;;;;;9.78;74.15;98367.59;4974993;28;103072;-57
2023/03/18 07:24:45;;;;;;;6.97;4.30;;;;;;;9.90;73.71;98366.69;4990335;28;104221;-57
2023/03/18 07:27:15;;;;;;;7.73;4.50;;;;;;;10.26;72.53;98367.53;4979255;28;104278;-57
2023/03/18 07:29:43;;;;;;;6.57;3.70;;;;;;;10.99;70.29;98367.94;4975193;28;102766;-57
2023/03/18 07:32:12;;;;;;;6.47;4.40;;;;;;;11.01;68.37;98369.50;4996122;28;103066;-57
2023/03/18 07:34:43;;;;;;;6.87;4.97;;;;;;;11.06;68.76;98372.59;4977288;28;104032;-57
2023/03/18 07:37:12;;;;;;;6.57;4.33;;;;;;;11.51;66.78;98375.16;4972550;28;104253;-57
2023/03/18 07:39:42;;;;;;;11.37;4.87;;;;;;;11.88;65.21;98379.16;4991107;28;102724;-58
2023/03/18 07:42:11;;;;;;;7.93;3.93;;;;;;;12.60;64.34;98381.94;4994822;28;102701;-57
2023/03/18 07:44:45;;;;;;;7.27;4.20;;;;;;;12.72;63.64;98370.25;4969891;28;103329;-57
2023/03/18 07:47:14;;;;;;;5.20;3.37;;;;;;;13.06;60.94;98374.31;4992645;28;103219;-57
2023/03/18 07:52:53;;;;;;;7.23;4.50;;;;;;;13.29;59.96;98373.19;4987023;28;102962;-57
2023/03/18 07:56:15;;;;;;;4.07;3.37;;;;;;;14.01;58.00;98367.53;4992983;28;104114;-57
2023/03/18 07:58:48;;;;;;;5.87;4.23;;;;;;;14.42;56.79;98367.25;4985425;28;103249;-57
2023/03/18 08:01:17;;;;;;;6.33;3.70;;;;;;;14.18;56.65;98369.47;4991096;28;102957;-58
2023/03/18 08:04:06;;;;;;;8.13;3.90;;;;;;;14.67;54.44;98370.28;4992730;28;102668;-58
2023/03/18 08:06:50;;;;;;;6.50;3.80;;;;;;;14.79;54.84;98374.44;4969092;28;103927;-57
2023/03/18 08:09:20;;;;;;;6.50;3.70;;;;;;;15.38;54.60;98369.53;4985094;28;103229;-57
2023/03/18 08:11:48;;;;;;;9.10;3.50;;;;;;;15.20;54.53;98368.66;4992335;28;102882;-57
2023/03/18 08:14:17;;;;;;;5.97;4.17;;;;;;;15.77;53.97;98369.34;4988986;28;103922;-58
2023/03/18 08:16:46;;;;;;;7.53;3.90;;;;;;;16.40;52.39;98376.22;4973967;28;103289;-58
2023/03/18 08:19:14;;;;;;;6.07;3.83;;;;;;;16.36;51.04;98380.22;4992917;28;103265;-57
2023/03/18 08:21:43;;;;;;;5.47;4.10;;;;;;;15.98;50.19;98377.88;4977980;28;102728;-57
2023/03/18 08:24:11;;;;;;;7.13;3.43;;;;;;;15.49;51.31;98379.19;4971178;28;103070;-57
2023/03/18 08:26:39;;;;;;;4.90;3.37;;;;;;;16.39;50.79;98384.41;4958371;28;103572;-57
2023/03/18 08:29:08;;;;;;;5.83;4.10;;;;;;;16.52;49.78;98379.50;4966578;28;104002;-57
2023/03/18 08:31:37;;;;;;;6.90;3.87;;;;;;;16.93;48.83;98376.13;4987965;28;102943;-58
2023/03/18 08:34:06;;;;;;;5.87;3.57;;;;;;;17.52;48.87;98375.22;4976892;28;103200;-57
2023/03/18 08:36:35;;;;;;;6.20;3.37;;;;;;;17.45;48.46;98370.69;4970191;28;104245;-57
2023/03/18 08:39:04;;;;;;;7.90;3.40;;;;;;;18.11;46.81;98370.69;4975459;28;103155;-58
2023/03/18 08:41:32;;;;;;;6.18;3.20;;;;;;;18.11;45.71;98368.00;4986848;28;103116;-58
2023/03/18 08:44:09;;;;;;;4.30;3.50;;;;;;;16.49;46.52;98372.63;4967624;28;104055;-57
2023/03/18 08:46:50;;;;;;;7.57;3.35;;;;;;;18.10;46.41;98371.69;4987364;28;103247;-58
2023/03/18 08:49:27;;;;;;;4.85;3.45;;;;;;;17.91;46.10;98370.16;4988979;28;103043;-57
2023/03/18 08:52:00;;;;;;;5.47;3.22;;;;;;;16.68;46.01;98369.81;4984372;28;103013;-58
2023/03/18 08:54:28;;;;;;;8.75;3.45;;;;;;;17.51;46.09;98367.38;4981987;28;103145;-58
2023/03/18 08:56:59;;;;;;;8.02;3.10;;;;;;;17.70;45.63;98362.63;4965290;28;103381;-58
2023/03/18 08:59:31;;;;;;;3.50;3.20;;;;;;;17.27;46.13;98357.44;4971822;28;103077;-57
2023/03/18 09:02:08;;;;;;;3.60;2.92;;;;;;;17.95;44.94;98356.31;4974347;28;102916;-58
2023/03/18 09:04:37;;;;;;;4.25;2.40;;;;;;;19.06;44.73;98358.22;4987821;28;102808;-58
2023/03/18 09:07:10;;;;;;;3.53;2.75;;;;;;;18.86;42.41;98359.63;4965497;28;103858;-58
2023/03/18 09:09:40;;;;;;;3.22;2.63;;;;;;;17.78;43.85;98356.44;4968555;28;103252;-57
2023/03/18 09:12:12;;;;;;;4.00;2.40;;;;;;;18.80;42.13;98352.28;4996404;28;102981;-58
2023/03/18 09:14:43;;;;;;;11.25;3.22;;;;;;;19.28;43.17;98358.50;4990890;28;103245;-58
2023/03/18 09:17:14;;;;;;;7.15;2.50;;;;;;;19.72;41.15;98351.59;5001022;28;103380;-58
2023/03/18 09:19:43;;;;;;;4.05;2.58;;;;;;;19.47;41.33;98339.34;4997598;28;103328;-58
2023/03/18 09:22:12;;;;;;;8.13;2.95;;;;;;;19.40;40.25;98338.38;4992308;28;103005;-58
2023/03/18 09:24:41;;;;;;;5.50;3.55;;;;;;;20.03;39.74;98344.38;4992245;28;104005;-58
2023/03/18 09:27:10;;;;;;;4.05;1.85;;;;;;;20.13;39.60;98342.25;4978238;28;104256;-58
2023/03/18 09:29:38;;;;;;;3.53;2.53;;;;;;;20.12;38.67;98342.47;4994180;28;103246;-58
2023/03/18 09:32:08;;;;;;;3.38;2.17;;;;;;;19.30;39.82;98341.25;4998451;28;103017;-58
2023/03/18 09:34:37;;;;;;;5.80;2.03;;;;;;;20.42;38.71;98332.66;5000051;28;102755;-58
2023/03/18 09:37:06;;;;;;;2.75;2.08;;;;;;;20.43;38.46;98331.66;4994494;28;104548;-59
2023/03/18 09:39:36;;;;;;;4.05;1.73;;;;;;;20.73;38.91;98328.84;4979910;28;103103;-58
2023/03/18 09:42:35;;;;;;;2.50;1.88;;;;;;;19.54;37.23;98334.94;4991549;28;102667;-59
2023/03/18 09:45:24;;;;;;;3.50;1.90;;;;;;;19.85;40.59;98333.09;4979776;28;102728;-58
2023/03/18 09:48:10;;;;;;;2.97;2.00;;;;;;;20.12;36.92;98337.94;4982049;28;103945;-58
2023/03/18 09:50:47;;;;;;;5.22;1.75;;;;;;;19.35;39.46;98335.34;4972615;28;103222;-59
2023/03/18 09:53:22;;;;;;;2.17;1.55;;;;;;;19.90;37.93;98333.38;4992644;28;102737;-59
2023/03/18 09:56:00;;;;;;;6.00;2.17;;;;;;;19.65;37.55;98329.19;4989816;28;102663;-59
2023/03/18 09:58:36;;;;;;;3.65;1.55;;;;;;;20.86;37.72;98324.69;4973687;28;103883;-59
2023/03/18 10:01:08;;;;;;;4.90;1.45;;;;;;;21.07;36.20;98317.59;4976136;28;103214;-59
2023/03/18 10:03:45;;;;;;;4.53;1.75;;;;;;;19.99;38.13;98318.06;4974469;28;102875;-58
2023/03/18 10:06:30;;;;;;;4.95;1.90;;;;;;;19.97;38.32;98312.91;4991733;28;102644;-59
2023/03/18 10:09:08;;;;;;;4.70;1.73;;;;;;;20.78;38.19;98304.13;4974164;28;103559;-58
2023/03/18 10:11:43;;;;;;;4.25;1.40;;;;;;;21.05;36.38;98305.34;4967959;28;103308;-59
2023/03/18 10:14:36;;;;;;;2.88;1.48;;;;;;;20.65;35.90;98301.25;4988831;28;102752;-59
2023/03/18 10:17:18;;;;;;;2.70;1.40;;;;;;;19.13;37.52;98309.34;4968341;28;102747;-59
2023/03/18 10:19:52;;;;;;;1.88;1.45;;;;;;;19.10;38.53;98311.38;4998075;28;103241;-59
2023/03/18 10:22:50;;;;;;;1.88;1.33;;;;;;;19.27;38.63;98306.78;4977123;28;103190;-58
2023/03/18 10:25:26;;;;;;;2.55;1.33;;;;;;;19.74;36.88;98306.69;4992215;28;102717;-59
2023/03/18 10:28:16;;;;;;;2.38;1.85;;;;;;;19.63;37.28;98307.94;4991180;28;102739;-58
2023/03/18 10:30:56;;;;;;;1.50;1.00;;;;;;;20.09;37.25;98303.44;4988773;28;103275;-59
2023/03/18 10:33:37;;;;;;;2.70;1.33;;;;;;;20.50;36.66;98301.22;4988177;28;103866;-59
2023/03/18 10:36:13;;;;;;;2.05;1.42;;;;;;;21.27;35.91;98305.25;4975533;28;102870;-58
2023/03/18 10:38:49;;;;;;;1.77;1.20;;;;;;;21.39;34.93;98302.91;4989340;28;102745;-59
2023/03/18 10:41:22;;;;;;;3.47;1.13;;;;;;;21.19;34.85;98308.03;4972952;28;104004;-58
2023/03/18 10:43:55;;;;;;;2.55;1.23;;;;;;;20.70;35.82;98304.22;4992575;28;103348;-58
2023/03/18 10:46:25;;;;;;;2.65;1.50;;;;;;;21.54;35.80;98297.50;4991350;28;104461;-58
2023/03/18 10:48:58;;;;;;;2.00;1.20;;;;;;;21.95;35.45;98295.91;5004643;28;103926;-58
2023/03/18 10:51:33;;;;;;;3.47;1.30;;;;;;;19.45;37.16;98303.88;4992711;28;103798;-58
2023/03/18 10:54:14;;;;;;;3.33;1.45;;;;;;;20.89;37.91;98290.25;4964368;28;103264;-59
2023/03/18 10:57:06;;;;;;;1.45;0.95;;;;;;;20.36;36.85;98287.78;4973627;28;103609;-59
2023/03/18 11:00:06;;;;;;;2.40;1.20;;;;;;;21.15;36.97;98287.13;4974800;28;103138;-59
2023/03/18 11:02:39;;;;;;;4.68;1.40;;;;;;;21.25;35.93;98280.41;4994378;28;103352;-59
2023/03/18 11:05:22;;;;;;;2.83;1.40;;;;;;;21.01;35.39;98271.81;4972225;28;104155;-59
2023/03/18 11:07:59;;;;;;;3.55;1.60;;;;;;;20.82;35.94;98278.59;4993624;28;102597;-58
2023/03/18 11:10:38;;;;;;;3.60;2.38;;;;;;;20.72;36.30;98273.50;4996440;28;102999;-59
2023/03/18 11:13:21;;;;;;;4.72;4.32;;;;;;;21.47;35.06;98275.09;4986207;28;103301;-59
2023/03/18 11:15:55;;;;;;;3.53;2.35;;;;;;;21.84;34.92;98264.09;4989085;28;103341;-59
2023/03/18 11:18:27;;;;;;;10.52;9.68;;;;;;;21.70;34.05;98267.69;4993860;28;102671;-59
2023/03/18 11:21:00;;;;;;;13.00;11.80;;;;;;;21.94;34.29;98260.13;4990474;28;102966;-58
2023/03/18 11:23:45;;;;;;;3.95;1.98;;;;;;;21.89;34.34;98267.09;4993317;28;103426;-59
2023/03/18 11:26:23;;;;;;;1.77;1.40;;;;;;;21.96;34.46;98257.22;4991239;28;103192;-59
2023/03/18 11:28:55;;;;;;;4.50;1.73;;;;;;;21.87;34.20;98263.75;4988744;28;102749;-59
2023/03/18 11:31:23;;;;;;;2.05;1.30;;;;;;;22.58;33.50;98249.22;4971615;28;102831;-59
2023/03/18 11:33:57;;;;;;;1.88;1.40;;;;;;;22.22;33.57;98252.09;4988664;28;104475;-59
2023/03/18 11:36:31;;;;;;;4.25;1.15;;;;;;;22.22;34.00;98241.31;4976266;28;103912;-60
2023/03/18 11:39:04;;;;;;;1.95;1.23;;;;;;;20.75;33.93;98245.44;4988918;28;102772;-59
2023/03/18 11:41:37;;;;;;;3.40;1.77;;;;;;;22.26;33.62;98247.97;4991310;28;104269;-59
2023/03/18 11:44:08;;;;;;;1.50;1.30;;;;;;;21.80;33.54;98249.41;4978046;28;103273;-59
2023/03/18 11:46:44;;;;;;;3.55;1.60;;;;;;;21.74;33.32;98239.41;4986724;28;103042;-59
2023/03/18 11:49:18;;;;;;;2.03;1.17;;;;;;;22.02;33.18;98234.94;4990624;28;102892;-59
2023/03/18 11:52:38;;;;;;;2.22;1.40;;;;;;;21.52;32.94;98232.38;4986967;28;103060;-59
2023/03/18 11:55:31;;;;;;;2.17;1.27;;;;;;;22.08;33.28;98228.78;4990756;28;103420;-59